sensor_id;sensor_type;location;lat;lon;timestamp;P1;durP1;ratioP1;P2;durP2;ratioP2
4601;SDS011;2313;48.552;9.370;2023-07-24T00:00:27;22.33;;;8.70;;
4601;SDS011;2313;48.552;9.370;2023-07-24T00:02:53;12.00;;;8.20;;
4601;SDS011;2313;48.552;9.370;2023-07-24T00:05:19;14.47;;;8.50;;
4601;SDS011;2313;48.552;9.370;2023-07-24T00:07:44;16.40;;;8.83;;
4601;SDS011;2313;48.552;9.370;2023-07-24T00:10:10;12.40;;;8.60;;
4601;SDS011;2313;48.552;9.370;2023-07-24T00:12:35;14.93;;;9.00;;
4601;SDS011;2313;48.552;9.370;2023-07-24T00:15:01;12.10;;;8.77;;
4601;SDS011;2313;48.552;9.370;2023-07-24T00:17:27;12.73;;;8.20;;
4601;SDS011;2313;48.552;9.370;2023-07-24T00:19:52;14.37;;;8.47;;
4601;SDS011;2313;48.552;9.370;2023-07-24T00:22:18;14.53;;;8.10;;
4601;SDS011;2313;48.552;9.370;2023-07-24T00:24:43;13.30;;;8.70;;
4601;SDS011;2313;48.552;9.370;2023-07-24T00:27:09;14.90;;;8.77;;
4601;SDS011;2313;48.552;9.370;2023-07-24T00:29:34;13.87;;;8.57;;
4601;SDS011;2313;48.552;9.370;2023-07-24T00:32:00;12.43;;;8.63;;
4601;SDS011;2313;48.552;9.370;2023-07-24T00:34:25;12.70;;;8.40;;
4601;SDS011;2313;48.552;9.370;2023-07-24T00:36:51;13.47;;;8.43;;
4601;SDS011;2313;48.552;9.370;2023-07-24T00:39:17;13.13;;;8.70;;
4601;SDS011;2313;48.552;9.370;2023-07-24T00:41:42;15.97;;;8.80;;
4601;SDS011;2313;48.552;9.370;2023-07-24T00:44:08;13.63;;;8.50;;
4601;SDS011;2313;48.552;9.370;2023-07-24T00:46:34;12.33;;;8.60;;
4601;SDS011;2313;48.552;9.370;2023-07-24T00:49:00;12.60;;;8.30;;
4601;SDS011;2313;48.552;9.370;2023-07-24T00:51:27;15.27;;;9.67;;
4601;SDS011;2313;48.552;9.370;2023-07-24T00:53:56;11.70;;;7.67;;
4601;SDS011;2313;48.552;9.370;2023-07-24T00:56:24;13.10;;;8.70;;
4601;SDS011;2313;48.552;9.370;2023-07-24T00:58:49;21.37;;;9.17;;
4601;SDS011;2313;48.552;9.370;2023-07-24T01:01:16;14.20;;;8.60;;
4601;SDS011;2313;48.552;9.370;2023-07-24T01:03:42;12.60;;;8.60;;
4601;SDS011;2313;48.552;9.370;2023-07-24T01:06:08;14.23;;;8.77;;
4601;SDS011;2313;48.552;9.370;2023-07-24T01:08:34;20.40;;;8.23;;
4601;SDS011;2313;48.552;9.370;2023-07-24T01:11:03;14.50;;;8.70;;
4601;SDS011;2313;48.552;9.370;2023-07-24T01:13:38;13.13;;;8.80;;
4601;SDS011;2313;48.552;9.370;2023-07-24T01:16:13;13.20;;;8.13;;
4601;SDS011;2313;48.552;9.370;2023-07-24T01:18:42;12.53;;;8.20;;
4601;SDS011;2313;48.552;9.370;2023-07-24T01:21:09;14.73;;;7.77;;
4601;SDS011;2313;48.552;9.370;2023-07-24T01:23:59;12.87;;;8.50;;
4601;SDS011;2313;48.552;9.370;2023-07-24T01:26:29;13.43;;;7.80;;
4601;SDS011;2313;48.552;9.370;2023-07-24T01:28:55;11.97;;;8.67;;
4601;SDS011;2313;48.552;9.370;2023-07-24T01:31:21;16.17;;;8.87;;
4601;SDS011;2313;48.552;9.370;2023-07-24T01:33:46;13.87;;;8.77;;
4601;SDS011;2313;48.552;9.370;2023-07-24T01:36:12;14.63;;;8.10;;
4601;SDS011;2313;48.552;9.370;2023-07-24T01:38:39;13.30;;;8.30;;
4601;SDS011;2313;48.552;9.370;2023-07-24T01:41:06;13.33;;;8.07;;
4601;SDS011;2313;48.552;9.370;2023-07-24T01:43:32;15.03;;;8.57;;
4601;SDS011;2313;48.552;9.370;2023-07-24T01:45:58;13.00;;;8.73;;
4601;SDS011;2313;48.552;9.370;2023-07-24T01:48:24;20.03;;;8.90;;
4601;SDS011;2313;48.552;9.370;2023-07-24T01:50:49;13.73;;;8.93;;
4601;SDS011;2313;48.552;9.370;2023-07-24T01:53:15;15.20;;;8.80;;
4601;SDS011;2313;48.552;9.370;2023-07-24T01:55:41;13.40;;;8.67;;
4601;SDS011;2313;48.552;9.370;2023-07-24T01:58:06;12.53;;;8.63;;
4601;SDS011;2313;48.552;9.370;2023-07-24T02:00:32;14.70;;;8.83;;
4601;SDS011;2313;48.552;9.370;2023-07-24T02:02:58;12.17;;;7.50;;
4601;SDS011;2313;48.552;9.370;2023-07-24T02:05:23;12.20;;;7.70;;
4601;SDS011;2313;48.552;9.370;2023-07-24T02:07:49;14.90;;;8.40;;
4601;SDS011;2313;48.552;9.370;2023-07-24T02:10:15;11.80;;;7.63;;
4601;SDS011;2313;48.552;9.370;2023-07-24T02:12:40;12.50;;;7.40;;
4601;SDS011;2313;48.552;9.370;2023-07-24T02:15:06;12.30;;;8.20;;
4601;SDS011;2313;48.552;9.370;2023-07-24T02:17:32;13.20;;;8.70;;
4601;SDS011;2313;48.552;9.370;2023-07-24T02:19:58;13.87;;;7.60;;
4601;SDS011;2313;48.552;9.370;2023-07-24T02:22:23;16.53;;;8.90;;
4601;SDS011;2313;48.552;9.370;2023-07-24T02:24:49;12.23;;;8.40;;
4601;SDS011;2313;48.552;9.370;2023-07-24T02:27:24;12.60;;;7.50;;
4601;SDS011;2313;48.552;9.370;2023-07-24T02:29:56;13.60;;;8.53;;
4601;SDS011;2313;48.552;9.370;2023-07-24T02:32:22;15.73;;;7.20;;
4601;SDS011;2313;48.552;9.370;2023-07-24T02:34:49;13.50;;;8.00;;
4601;SDS011;2313;48.552;9.370;2023-07-24T02:37:15;13.23;;;8.10;;
4601;SDS011;2313;48.552;9.370;2023-07-24T02:39:40;16.77;;;8.57;;
4601;SDS011;2313;48.552;9.370;2023-07-24T02:42:06;16.20;;;9.30;;
4601;SDS011;2313;48.552;9.370;2023-07-24T02:44:33;13.20;;;7.77;;
4601;SDS011;2313;48.552;9.370;2023-07-24T02:46:59;15.53;;;8.43;;
4601;SDS011;2313;48.552;9.370;2023-07-24T02:49:25;11.77;;;7.23;;
4601;SDS011;2313;48.552;9.370;2023-07-24T02:51:51;14.30;;;8.40;;
4601;SDS011;2313;48.552;9.370;2023-07-24T02:54:16;16.80;;;9.50;;
4601;SDS011;2313;48.552;9.370;2023-07-24T02:56:42;16.13;;;9.23;;
4601;SDS011;2313;48.552;9.370;2023-07-24T02:59:07;16.90;;;8.23;;
4601;SDS011;2313;48.552;9.370;2023-07-24T03:01:33;14.90;;;9.13;;
4601;SDS011;2313;48.552;9.370;2023-07-24T03:03:58;14.67;;;8.90;;
4601;SDS011;2313;48.552;9.370;2023-07-24T03:06:25;15.67;;;8.90;;
4601;SDS011;2313;48.552;9.370;2023-07-24T03:08:50;13.27;;;8.30;;
4601;SDS011;2313;48.552;9.370;2023-07-24T03:11:16;12.53;;;8.30;;
4601;SDS011;2313;48.552;9.370;2023-07-24T03:13:41;13.10;;;8.60;;
4601;SDS011;2313;48.552;9.370;2023-07-24T03:16:08;15.83;;;9.50;;
4601;SDS011;2313;48.552;9.370;2023-07-24T03:18:33;13.70;;;9.20;;
4601;SDS011;2313;48.552;9.370;2023-07-24T03:20:59;14.87;;;8.93;;
4601;SDS011;2313;48.552;9.370;2023-07-24T03:23:24;12.23;;;8.40;;
4601;SDS011;2313;48.552;9.370;2023-07-24T03:25:51;14.70;;;8.87;;
4601;SDS011;2313;48.552;9.370;2023-07-24T03:28:16;15.93;;;10.23;;
4601;SDS011;2313;48.552;9.370;2023-07-24T03:30:42;14.70;;;9.20;;
4601;SDS011;2313;48.552;9.370;2023-07-24T03:33:07;14.80;;;9.30;;
4601;SDS011;2313;48.552;9.370;2023-07-24T03:35:33;18.70;;;9.70;;
4601;SDS011;2313;48.552;9.370;2023-07-24T03:37:59;12.40;;;9.20;;
4601;SDS011;2313;48.552;9.370;2023-07-24T03:40:24;12.83;;;8.40;;
4601;SDS011;2313;48.552;9.370;2023-07-24T03:42:50;16.00;;;9.80;;
4601;SDS011;2313;48.552;9.370;2023-07-24T03:45:16;14.97;;;9.00;;
4601;SDS011;2313;48.552;9.370;2023-07-24T03:47:41;13.87;;;8.63;;
4601;SDS011;2313;48.552;9.370;2023-07-24T03:50:07;15.73;;;8.77;;
4601;SDS011;2313;48.552;9.370;2023-07-24T03:52:33;15.47;;;9.33;;
4601;SDS011;2313;48.552;9.370;2023-07-24T03:54:58;14.00;;;9.50;;
4601;SDS011;2313;48.552;9.370;2023-07-24T03:57:24;14.50;;;8.70;;
4601;SDS011;2313;48.552;9.370;2023-07-24T03:59:50;17.03;;;9.90;;
4601;SDS011;2313;48.552;9.370;2023-07-24T04:02:15;17.20;;;9.73;;
4601;SDS011;2313;48.552;9.370;2023-07-24T04:04:41;13.87;;;8.80;;
4601;SDS011;2313;48.552;9.370;2023-07-24T04:07:06;14.00;;;8.50;;
4601;SDS011;2313;48.552;9.370;2023-07-24T04:09:32;12.37;;;8.70;;
4601;SDS011;2313;48.552;9.370;2023-07-24T04:11:57;12.00;;;8.17;;
4601;SDS011;2313;48.552;9.370;2023-07-24T04:14:23;15.13;;;8.90;;
4601;SDS011;2313;48.552;9.370;2023-07-24T04:16:49;12.77;;;8.70;;
4601;SDS011;2313;48.552;9.370;2023-07-24T04:19:14;14.63;;;8.93;;
4601;SDS011;2313;48.552;9.370;2023-07-24T04:21:40;13.00;;;8.90;;
4601;SDS011;2313;48.552;9.370;2023-07-24T04:24:05;12.83;;;8.67;;
4601;SDS011;2313;48.552;9.370;2023-07-24T04:26:31;14.27;;;8.70;;
4601;SDS011;2313;48.552;9.370;2023-07-24T04:28:57;12.23;;;8.20;;
4601;SDS011;2313;48.552;9.370;2023-07-24T04:31:22;12.50;;;8.37;;
4601;SDS011;2313;48.552;9.370;2023-07-24T04:33:48;14.23;;;9.00;;
4601;SDS011;2313;48.552;9.370;2023-07-24T04:36:13;14.43;;;9.00;;
4601;SDS011;2313;48.552;9.370;2023-07-24T04:38:40;10.33;;;7.50;;
4601;SDS011;2313;48.552;9.370;2023-07-24T04:41:06;11.80;;;8.13;;
4601;SDS011;2313;48.552;9.370;2023-07-24T04:43:31;14.33;;;8.33;;
4601;SDS011;2313;48.552;9.370;2023-07-24T04:45:57;14.77;;;8.33;;
4601;SDS011;2313;48.552;9.370;2023-07-24T04:48:22;12.00;;;8.03;;
4601;SDS011;2313;48.552;9.370;2023-07-24T04:50:54;15.97;;;8.13;;
4601;SDS011;2313;48.552;9.370;2023-07-24T04:53:20;14.23;;;8.30;;
4601;SDS011;2313;48.552;9.370;2023-07-24T04:55:46;16.10;;;8.43;;
4601;SDS011;2313;48.552;9.370;2023-07-24T04:58:12;14.17;;;9.37;;
4601;SDS011;2313;48.552;9.370;2023-07-24T05:00:38;13.03;;;8.73;;
4601;SDS011;2313;48.552;9.370;2023-07-24T05:03:03;13.73;;;8.43;;
4601;SDS011;2313;48.552;9.370;2023-07-24T05:05:30;12.07;;;8.23;;
4601;SDS011;2313;48.552;9.370;2023-07-24T05:07:56;15.83;;;9.10;;
4601;SDS011;2313;48.552;9.370;2023-07-24T05:10:22;13.50;;;8.87;;
4601;SDS011;2313;48.552;9.370;2023-07-24T05:12:48;11.53;;;8.13;;
4601;SDS011;2313;48.552;9.370;2023-07-24T05:15:13;14.27;;;8.67;;
4601;SDS011;2313;48.552;9.370;2023-07-24T05:17:41;13.93;;;8.07;;
4601;SDS011;2313;48.552;9.370;2023-07-24T05:20:10;11.90;;;8.40;;
4601;SDS011;2313;48.552;9.370;2023-07-24T05:22:36;14.93;;;9.23;;
4601;SDS011;2313;48.552;9.370;2023-07-24T05:25:01;15.30;;;8.90;;
4601;SDS011;2313;48.552;9.370;2023-07-24T05:27:27;14.43;;;7.93;;
4601;SDS011;2313;48.552;9.370;2023-07-24T05:29:54;12.63;;;7.50;;
4601;SDS011;2313;48.552;9.370;2023-07-24T05:32:20;12.40;;;8.23;;
4601;SDS011;2313;48.552;9.370;2023-07-24T05:34:45;12.20;;;7.90;;
4601;SDS011;2313;48.552;9.370;2023-07-24T05:37:11;12.30;;;8.33;;
4601;SDS011;2313;48.552;9.370;2023-07-24T05:39:36;11.50;;;8.20;;
4601;SDS011;2313;48.552;9.370;2023-07-24T05:42:02;10.73;;;7.90;;
4601;SDS011;2313;48.552;9.370;2023-07-24T05:44:28;14.83;;;8.30;;
4601;SDS011;2313;48.552;9.370;2023-07-24T05:46:54;13.10;;;8.20;;
4601;SDS011;2313;48.552;9.370;2023-07-24T05:49:19;15.30;;;8.97;;
4601;SDS011;2313;48.552;9.370;2023-07-24T05:51:45;10.43;;;7.80;;
4601;SDS011;2313;48.552;9.370;2023-07-24T05:54:10;19.20;;;9.10;;
4601;SDS011;2313;48.552;9.370;2023-07-24T05:56:36;15.70;;;8.07;;
4601;SDS011;2313;48.552;9.370;2023-07-24T05:59:01;13.93;;;8.63;;
4601;SDS011;2313;48.552;9.370;2023-07-24T06:01:27;11.40;;;7.73;;
4601;SDS011;2313;48.552;9.370;2023-07-24T06:03:53;12.70;;;8.63;;
4601;SDS011;2313;48.552;9.370;2023-07-24T06:06:18;14.97;;;8.00;;
4601;SDS011;2313;48.552;9.370;2023-07-24T06:08:44;12.33;;;8.17;;
4601;SDS011;2313;48.552;9.370;2023-07-24T06:11:12;15.63;;;7.57;;
4601;SDS011;2313;48.552;9.370;2023-07-24T06:13:37;17.50;;;8.20;;
4601;SDS011;2313;48.552;9.370;2023-07-24T06:16:03;15.10;;;8.80;;
4601;SDS011;2313;48.552;9.370;2023-07-24T06:18:29;12.97;;;8.27;;
4601;SDS011;2313;48.552;9.370;2023-07-24T06:20:54;13.43;;;8.80;;
4601;SDS011;2313;48.552;9.370;2023-07-24T06:23:20;14.10;;;8.50;;
4601;SDS011;2313;48.552;9.370;2023-07-24T06:25:46;14.03;;;8.43;;
4601;SDS011;2313;48.552;9.370;2023-07-24T06:28:12;16.03;;;8.80;;
4601;SDS011;2313;48.552;9.370;2023-07-24T06:30:40;22.70;;;8.40;;
4601;SDS011;2313;48.552;9.370;2023-07-24T06:33:06;11.80;;;7.93;;
4601;SDS011;2313;48.552;9.370;2023-07-24T06:35:31;14.47;;;8.40;;
4601;SDS011;2313;48.552;9.370;2023-07-24T06:37:57;11.80;;;7.33;;
4601;SDS011;2313;48.552;9.370;2023-07-24T06:40:22;16.53;;;8.30;;
4601;SDS011;2313;48.552;9.370;2023-07-24T06:42:48;22.57;;;9.30;;
4601;SDS011;2313;48.552;9.370;2023-07-24T06:45:14;12.80;;;7.57;;
4601;SDS011;2313;48.552;9.370;2023-07-24T06:47:39;17.10;;;8.87;;
4601;SDS011;2313;48.552;9.370;2023-07-24T06:50:05;12.60;;;8.37;;
4601;SDS011;2313;48.552;9.370;2023-07-24T06:52:32;16.10;;;8.30;;
4601;SDS011;2313;48.552;9.370;2023-07-24T06:54:57;10.70;;;7.63;;
4601;SDS011;2313;48.552;9.370;2023-07-24T06:57:23;13.10;;;8.20;;
4601;SDS011;2313;48.552;9.370;2023-07-24T06:59:49;17.60;;;9.20;;
4601;SDS011;2313;48.552;9.370;2023-07-24T07:02:15;17.77;;;8.50;;
4601;SDS011;2313;48.552;9.370;2023-07-24T07:04:40;14.93;;;7.90;;
4601;SDS011;2313;48.552;9.370;2023-07-24T07:07:06;13.87;;;8.37;;
4601;SDS011;2313;48.552;9.370;2023-07-24T07:09:32;12.13;;;8.30;;
4601;SDS011;2313;48.552;9.370;2023-07-24T07:11:57;13.20;;;7.70;;
4601;SDS011;2313;48.552;9.370;2023-07-24T07:14:23;13.17;;;8.13;;
4601;SDS011;2313;48.552;9.370;2023-07-24T07:16:49;14.43;;;7.07;;
4601;SDS011;2313;48.552;9.370;2023-07-24T07:19:17;18.30;;;8.07;;
4601;SDS011;2313;48.552;9.370;2023-07-24T07:21:43;15.20;;;7.87;;
4601;SDS011;2313;48.552;9.370;2023-07-24T07:24:08;17.73;;;7.70;;
4601;SDS011;2313;48.552;9.370;2023-07-24T07:26:34;13.27;;;7.90;;
4601;SDS011;2313;48.552;9.370;2023-07-24T07:29:00;14.60;;;7.40;;
4601;SDS011;2313;48.552;9.370;2023-07-24T07:31:25;9.77;;;7.43;;
4601;SDS011;2313;48.552;9.370;2023-07-24T07:33:51;16.33;;;7.37;;
4601;SDS011;2313;48.552;9.370;2023-07-24T07:36:16;14.40;;;9.03;;
4601;SDS011;2313;48.552;9.370;2023-07-24T07:38:43;15.47;;;7.70;;
4601;SDS011;2313;48.552;9.370;2023-07-24T07:41:08;11.93;;;7.00;;
4601;SDS011;2313;48.552;9.370;2023-07-24T07:43:34;14.00;;;7.70;;
4601;SDS011;2313;48.552;9.370;2023-07-24T07:46:01;14.80;;;8.10;;
4601;SDS011;2313;48.552;9.370;2023-07-24T07:48:27;15.10;;;7.60;;
4601;SDS011;2313;48.552;9.370;2023-07-24T07:50:53;11.60;;;7.07;;
4601;SDS011;2313;48.552;9.370;2023-07-24T07:53:18;9.03;;;6.70;;
4601;SDS011;2313;48.552;9.370;2023-07-24T07:55:44;9.70;;;7.30;;
4601;SDS011;2313;48.552;9.370;2023-07-24T07:58:09;10.53;;;6.80;;
4601;SDS011;2313;48.552;9.370;2023-07-24T08:00:35;14.27;;;8.50;;
4601;SDS011;2313;48.552;9.370;2023-07-24T08:03:00;11.43;;;7.83;;
4601;SDS011;2313;48.552;9.370;2023-07-24T08:05:26;15.10;;;7.17;;
4601;SDS011;2313;48.552;9.370;2023-07-24T08:07:52;11.83;;;7.13;;
4601;SDS011;2313;48.552;9.370;2023-07-24T08:10:18;10.87;;;7.77;;
4601;SDS011;2313;48.552;9.370;2023-07-24T08:12:44;11.30;;;6.70;;
4601;SDS011;2313;48.552;9.370;2023-07-24T08:15:09;11.57;;;7.13;;
4601;SDS011;2313;48.552;9.370;2023-07-24T08:17:35;10.07;;;7.60;;
4601;SDS011;2313;48.552;9.370;2023-07-24T08:20:01;14.13;;;6.30;;
4601;SDS011;2313;48.552;9.370;2023-07-24T08:22:27;8.27;;;6.10;;
4601;SDS011;2313;48.552;9.370;2023-07-24T08:24:53;10.97;;;6.60;;
4601;SDS011;2313;48.552;9.370;2023-07-24T08:27:19;8.40;;;5.90;;
4601;SDS011;2313;48.552;9.370;2023-07-24T08:29:44;12.03;;;7.47;;
4601;SDS011;2313;48.552;9.370;2023-07-24T08:32:10;7.77;;;5.67;;
4601;SDS011;2313;48.552;9.370;2023-07-24T08:34:35;15.23;;;6.73;;
4601;SDS011;2313;48.552;9.370;2023-07-24T08:37:01;9.63;;;6.33;;
4601;SDS011;2313;48.552;9.370;2023-07-24T08:39:27;9.83;;;5.83;;
4601;SDS011;2313;48.552;9.370;2023-07-24T08:41:52;10.70;;;6.60;;
4601;SDS011;2313;48.552;9.370;2023-07-24T08:44:18;7.70;;;5.90;;
4601;SDS011;2313;48.552;9.370;2023-07-24T08:46:44;11.30;;;6.30;;
4601;SDS011;2313;48.552;9.370;2023-07-24T08:49:12;10.53;;;6.30;;
4601;SDS011;2313;48.552;9.370;2023-07-24T08:51:39;8.13;;;5.77;;
4601;SDS011;2313;48.552;9.370;2023-07-24T08:54:06;7.90;;;6.00;;
4601;SDS011;2313;48.552;9.370;2023-07-24T08:56:32;11.13;;;5.57;;
4601;SDS011;2313;48.552;9.370;2023-07-24T08:58:58;8.83;;;7.17;;
4601;SDS011;2313;48.552;9.370;2023-07-24T09:01:24;18.50;;;6.50;;
4601;SDS011;2313;48.552;9.370;2023-07-24T09:03:50;14.20;;;7.53;;
4601;SDS011;2313;48.552;9.370;2023-07-24T09:06:16;8.87;;;7.20;;
4601;SDS011;2313;48.552;9.370;2023-07-24T09:08:42;8.80;;;6.30;;
4601;SDS011;2313;48.552;9.370;2023-07-24T09:11:08;8.70;;;6.13;;
4601;SDS011;2313;48.552;9.370;2023-07-24T09:13:36;9.17;;;6.93;;
4601;SDS011;2313;48.552;9.370;2023-07-24T09:16:03;9.03;;;5.90;;
4601;SDS011;2313;48.552;9.370;2023-07-24T09:18:41;9.97;;;6.87;;
4601;SDS011;2313;48.552;9.370;2023-07-24T09:21:08;10.23;;;6.60;;
4601;SDS011;2313;48.552;9.370;2023-07-24T09:23:37;9.37;;;6.80;;
4601;SDS011;2313;48.552;9.370;2023-07-24T09:26:06;9.90;;;5.97;;
4601;SDS011;2313;48.552;9.370;2023-07-24T09:28:33;10.10;;;6.30;;
4601;SDS011;2313;48.552;9.370;2023-07-24T09:30:59;7.83;;;6.40;;
4601;SDS011;2313;48.552;9.370;2023-07-24T09:33:36;7.30;;;6.17;;
4601;SDS011;2313;48.552;9.370;2023-07-24T09:36:04;12.47;;;5.87;;
4601;SDS011;2313;48.552;9.370;2023-07-24T09:38:32;10.23;;;6.90;;
4601;SDS011;2313;48.552;9.370;2023-07-24T09:40:57;11.03;;;6.23;;
4601;SDS011;2313;48.552;9.370;2023-07-24T09:43:26;8.77;;;6.30;;
4601;SDS011;2313;48.552;9.370;2023-07-24T09:45:53;10.10;;;6.20;;
4601;SDS011;2313;48.552;9.370;2023-07-24T09:48:20;11.87;;;7.07;;
4601;SDS011;2313;48.552;9.370;2023-07-24T09:50:48;9.93;;;6.60;;
4601;SDS011;2313;48.552;9.370;2023-07-24T09:53:20;12.20;;;6.97;;
4601;SDS011;2313;48.552;9.370;2023-07-24T09:56:07;11.80;;;6.03;;
4601;SDS011;2313;48.552;9.370;2023-07-24T09:58:34;13.20;;;6.57;;
4601;SDS011;2313;48.552;9.370;2023-07-24T10:01:02;8.90;;;6.73;;
4601;SDS011;2313;48.552;9.370;2023-07-24T10:03:29;11.00;;;6.77;;
4601;SDS011;2313;48.552;9.370;2023-07-24T10:05:56;11.93;;;6.37;;
4601;SDS011;2313;48.552;9.370;2023-07-24T10:08:21;10.47;;;7.37;;
4601;SDS011;2313;48.552;9.370;2023-07-24T10:10:48;8.77;;;6.20;;
4601;SDS011;2313;48.552;9.370;2023-07-24T10:13:17;9.50;;;6.10;;
4601;SDS011;2313;48.552;9.370;2023-07-24T10:15:44;9.87;;;6.90;;
4601;SDS011;2313;48.552;9.370;2023-07-24T10:18:11;13.07;;;7.57;;
4601;SDS011;2313;48.552;9.370;2023-07-24T10:20:40;10.10;;;6.67;;
4601;SDS011;2313;48.552;9.370;2023-07-24T10:23:07;9.90;;;6.83;;
4601;SDS011;2313;48.552;9.370;2023-07-24T10:25:35;11.07;;;6.57;;
4601;SDS011;2313;48.552;9.370;2023-07-24T10:30:36;18.60;;;8.90;;
4601;SDS011;2313;48.552;9.370;2023-07-24T10:35:36;8.83;;;7.30;;
4601;SDS011;2313;48.552;9.370;2023-07-24T10:38:03;10.70;;;6.60;;
4601;SDS011;2313;48.552;9.370;2023-07-24T10:40:29;13.00;;;7.27;;
4601;SDS011;2313;48.552;9.370;2023-07-24T10:43:08;9.63;;;6.30;;
4601;SDS011;2313;48.552;9.370;2023-07-24T10:48:11;10.40;;;6.03;;
4601;SDS011;2313;48.552;9.370;2023-07-24T10:50:38;10.03;;;6.67;;
4601;SDS011;2313;48.552;9.370;2023-07-24T10:53:04;9.03;;;6.70;;
4601;SDS011;2313;48.552;9.370;2023-07-24T10:55:30;14.23;;;7.23;;
4601;SDS011;2313;48.552;9.370;2023-07-24T10:57:56;10.43;;;6.90;;
4601;SDS011;2313;48.552;9.370;2023-07-24T11:00:21;9.83;;;6.10;;
4601;SDS011;2313;48.552;9.370;2023-07-24T11:02:47;9.60;;;6.50;;
4601;SDS011;2313;48.552;9.370;2023-07-24T11:05:13;10.23;;;7.30;;
4601;SDS011;2313;48.552;9.370;2023-07-24T11:07:39;8.47;;;6.10;;
4601;SDS011;2313;48.552;9.370;2023-07-24T11:10:14;9.37;;;6.10;;
4601;SDS011;2313;48.552;9.370;2023-07-24T11:12:43;8.53;;;6.00;;
4601;SDS011;2313;48.552;9.370;2023-07-24T11:15:10;17.90;;;6.87;;
4601;SDS011;2313;48.552;9.370;2023-07-24T11:17:37;9.27;;;6.10;;
4601;SDS011;2313;48.552;9.370;2023-07-24T11:20:15;9.53;;;6.27;;
4601;SDS011;2313;48.552;9.370;2023-07-24T11:22:42;8.10;;;6.23;;
4601;SDS011;2313;48.552;9.370;2023-07-24T11:25:09;8.87;;;6.80;;
4601;SDS011;2313;48.552;9.370;2023-07-24T11:27:39;11.13;;;7.10;;
4601;SDS011;2313;48.552;9.370;2023-07-24T11:30:07;8.50;;;6.57;;
4601;SDS011;2313;48.552;9.370;2023-07-24T11:32:34;8.10;;;6.20;;
4601;SDS011;2313;48.552;9.370;2023-07-24T11:35:00;8.77;;;6.73;;
4601;SDS011;2313;48.552;9.370;2023-07-24T11:37:26;7.97;;;5.90;;
4601;SDS011;2313;48.552;9.370;2023-07-24T11:39:58;9.07;;;6.20;;
4601;SDS011;2313;48.552;9.370;2023-07-24T11:42:29;8.50;;;5.93;;
4601;SDS011;2313;48.552;9.370;2023-07-24T11:44:55;7.97;;;6.33;;
4601;SDS011;2313;48.552;9.370;2023-07-24T11:47:21;9.57;;;5.60;;
4601;SDS011;2313;48.552;9.370;2023-07-24T11:49:59;9.13;;;6.70;;
4601;SDS011;2313;48.552;9.370;2023-07-24T11:52:36;9.60;;;6.20;;
4601;SDS011;2313;48.552;9.370;2023-07-24T11:55:08;9.67;;;6.33;;
4601;SDS011;2313;48.552;9.370;2023-07-24T11:57:33;9.07;;;6.20;;
4601;SDS011;2313;48.552;9.370;2023-07-24T11:59:59;10.70;;;6.30;;
4601;SDS011;2313;48.552;9.370;2023-07-24T12:02:28;6.60;;;5.43;;
4601;SDS011;2313;48.552;9.370;2023-07-24T12:04:54;7.20;;;5.20;;
4601;SDS011;2313;48.552;9.370;2023-07-24T12:07:22;9.20;;;6.57;;
4601;SDS011;2313;48.552;9.370;2023-07-24T12:09:53;7.60;;;5.47;;
4601;SDS011;2313;48.552;9.370;2023-07-24T12:12:19;10.13;;;6.60;;
4601;SDS011;2313;48.552;9.370;2023-07-24T12:14:45;10.17;;;5.83;;
4601;SDS011;2313;48.552;9.370;2023-07-24T12:17:10;8.73;;;5.67;;
4601;SDS011;2313;48.552;9.370;2023-07-24T12:19:39;6.27;;;5.30;;
4601;SDS011;2313;48.552;9.370;2023-07-24T12:22:04;8.60;;;5.60;;
4601;SDS011;2313;48.552;9.370;2023-07-24T12:24:30;8.57;;;5.20;;
4601;SDS011;2313;48.552;9.370;2023-07-24T12:26:56;7.30;;;5.27;;
4601;SDS011;2313;48.552;9.370;2023-07-24T12:29:21;5.60;;;4.43;;
4601;SDS011;2313;48.552;9.370;2023-07-24T12:31:47;8.23;;;6.27;;
4601;SDS011;2313;48.552;9.370;2023-07-24T12:34:12;6.77;;;5.10;;
4601;SDS011;2313;48.552;9.370;2023-07-24T12:36:38;14.60;;;5.53;;
4601;SDS011;2313;48.552;9.370;2023-07-24T12:39:04;5.50;;;4.47;;
4601;SDS011;2313;48.552;9.370;2023-07-24T12:41:29;5.77;;;4.70;;
4601;SDS011;2313;48.552;9.370;2023-07-24T12:43:55;8.17;;;5.27;;
4601;SDS011;2313;48.552;9.370;2023-07-24T12:46:20;7.93;;;4.90;;
4601;SDS011;2313;48.552;9.370;2023-07-24T12:48:46;5.93;;;3.73;;
4601;SDS011;2313;48.552;9.370;2023-07-24T12:51:12;6.50;;;5.17;;
4601;SDS011;2313;48.552;9.370;2023-07-24T12:53:37;6.27;;;4.90;;
4601;SDS011;2313;48.552;9.370;2023-07-24T12:56:03;5.87;;;4.50;;
4601;SDS011;2313;48.552;9.370;2023-07-24T12:58:28;6.10;;;4.70;;
4601;SDS011;2313;48.552;9.370;2023-07-24T13:00:54;8.10;;;4.37;;
4601;SDS011;2313;48.552;9.370;2023-07-24T13:03:20;5.43;;;4.90;;
4601;SDS011;2313;48.552;9.370;2023-07-24T13:05:46;5.97;;;4.80;;
4601;SDS011;2313;48.552;9.370;2023-07-24T13:08:12;6.07;;;4.30;;
4601;SDS011;2313;48.552;9.370;2023-07-24T13:10:38;6.00;;;4.20;;
4601;SDS011;2313;48.552;9.370;2023-07-24T13:13:03;5.87;;;4.60;;
4601;SDS011;2313;48.552;9.370;2023-07-24T13:15:29;7.83;;;4.53;;
4601;SDS011;2313;48.552;9.370;2023-07-24T13:17:57;5.87;;;4.77;;
4601;SDS011;2313;48.552;9.370;2023-07-24T13:20:24;5.50;;;4.33;;
4601;SDS011;2313;48.552;9.370;2023-07-24T13:22:49;6.83;;;4.37;;
4601;SDS011;2313;48.552;9.370;2023-07-24T13:25:15;4.63;;;3.70;;
4601;SDS011;2313;48.552;9.370;2023-07-24T13:27:41;5.73;;;3.70;;
4601;SDS011;2313;48.552;9.370;2023-07-24T13:30:06;8.33;;;3.63;;
4601;SDS011;2313;48.552;9.370;2023-07-24T13:32:32;11.33;;;4.03;;
4601;SDS011;2313;48.552;9.370;2023-07-24T13:34:58;3.77;;;3.20;;
4601;SDS011;2313;48.552;9.370;2023-07-24T13:37:25;4.47;;;3.10;;
4601;SDS011;2313;48.552;9.370;2023-07-24T13:39:51;4.57;;;3.70;;
4601;SDS011;2313;48.552;9.370;2023-07-24T13:42:16;5.13;;;3.37;;
4601;SDS011;2313;48.552;9.370;2023-07-24T13:44:42;9.20;;;3.60;;
4601;SDS011;2313;48.552;9.370;2023-07-24T13:47:07;3.80;;;3.20;;
4601;SDS011;2313;48.552;9.370;2023-07-24T13:49:33;4.20;;;3.50;;
4601;SDS011;2313;48.552;9.370;2023-07-24T13:51:58;5.17;;;3.87;;
4601;SDS011;2313;48.552;9.370;2023-07-24T13:54:24;4.10;;;3.20;;
4601;SDS011;2313;48.552;9.370;2023-07-24T13:56:50;4.00;;;3.53;;
4601;SDS011;2313;48.552;9.370;2023-07-24T13:59:15;5.30;;;3.37;;
4601;SDS011;2313;48.552;9.370;2023-07-24T14:01:41;2.90;;;2.53;;
4601;SDS011;2313;48.552;9.370;2023-07-24T14:04:06;3.57;;;2.90;;
4601;SDS011;2313;48.552;9.370;2023-07-24T14:06:32;6.80;;;3.67;;
4601;SDS011;2313;48.552;9.370;2023-07-24T14:08:58;6.07;;;3.80;;
4601;SDS011;2313;48.552;9.370;2023-07-24T14:11:23;4.30;;;3.23;;
4601;SDS011;2313;48.552;9.370;2023-07-24T14:13:49;4.20;;;3.80;;
4601;SDS011;2313;48.552;9.370;2023-07-24T14:16:15;3.03;;;2.73;;
4601;SDS011;2313;48.552;9.370;2023-07-24T14:18:41;4.77;;;3.23;;
4601;SDS011;2313;48.552;9.370;2023-07-24T14:21:06;4.20;;;3.10;;
4601;SDS011;2313;48.552;9.370;2023-07-24T14:23:32;4.60;;;3.43;;
4601;SDS011;2313;48.552;9.370;2023-07-24T14:25:57;3.53;;;3.23;;
4601;SDS011;2313;48.552;9.370;2023-07-24T14:28:23;4.90;;;3.83;;
4601;SDS011;2313;48.552;9.370;2023-07-24T14:30:49;5.23;;;3.40;;
4601;SDS011;2313;48.552;9.370;2023-07-24T14:33:14;5.57;;;3.53;;
4601;SDS011;2313;48.552;9.370;2023-07-24T14:35:40;7.83;;;4.00;;
4601;SDS011;2313;48.552;9.370;2023-07-24T14:38:05;3.70;;;3.23;;
4601;SDS011;2313;48.552;9.370;2023-07-24T14:40:31;5.30;;;2.80;;
4601;SDS011;2313;48.552;9.370;2023-07-24T14:42:57;4.13;;;3.30;;
4601;SDS011;2313;48.552;9.370;2023-07-24T14:45:22;4.60;;;3.63;;
4601;SDS011;2313;48.552;9.370;2023-07-24T14:47:48;3.93;;;3.43;;
4601;SDS011;2313;48.552;9.370;2023-07-24T14:50:13;6.57;;;3.43;;
4601;SDS011;2313;48.552;9.370;2023-07-24T14:52:39;7.93;;;3.77;;
4601;SDS011;2313;48.552;9.370;2023-07-24T14:55:05;18.57;;;5.10;;
4601;SDS011;2313;48.552;9.370;2023-07-24T14:57:31;7.93;;;4.77;;
4601;SDS011;2313;48.552;9.370;2023-07-24T14:59:57;6.73;;;4.33;;
4601;SDS011;2313;48.552;9.370;2023-07-24T15:02:23;6.20;;;4.10;;
4601;SDS011;2313;48.552;9.370;2023-07-24T15:04:48;12.17;;;3.97;;
4601;SDS011;2313;48.552;9.370;2023-07-24T15:07:14;5.67;;;4.27;;